createdAt,value
2019-04-25T00:02:27.371Z,101975.89
2019-04-25T00:05:08.643Z,101977.25
2019-04-25T00:07:48.632Z,101975.95
2019-04-25T00:10:24.446Z,101979.56
2019-04-25T00:13:03.774Z,101981.03
2019-04-25T00:15:35.358Z,101975.31
2019-04-25T00:18:12.716Z,101976.86
2019-04-25T00:20:57.494Z,101981.53
2019-04-25T00:23:31.767Z,101982.81
2019-04-25T00:26:22.233Z,101979.42
2019-04-25T00:28:56.280Z,101985.43
2019-04-25T00:31:28.912Z,101984.22
2019-04-25T00:34:02.182Z,101982.55
2019-04-25T00:36:34.074Z,101978.58
2019-04-25T00:39:07.295Z,101989.27
2019-04-25T00:41:39.342Z,101995.32
2019-04-25T00:44:12.106Z,101988.88
2019-04-25T00:46:47.808Z,101996.92
2019-04-25T00:49:16.919Z,101992.41
2019-04-25T00:51:50.730Z,101997.00
2019-04-25T00:54:23.451Z,101991.30
2019-04-25T00:56:55.265Z,101997.45
2019-04-25T00:59:37.317Z,101996.50
2019-04-25T01:02:11.468Z,101992.96
2019-04-25T01:04:43.730Z,101987.78
2019-04-25T01:07:16.374Z,101988.49
2019-04-25T01:09:49.973Z,101988.42
2019-04-25T01:12:22.309Z,101985.97
2019-04-25T01:14:54.738Z,101984.89
2019-04-25T01:17:26.487Z,101980.80
2019-04-25T01:19:58.152Z,101976.70
2019-04-25T01:22:29.801Z,101976.29
2019-04-25T01:25:01.451Z,101977.73
2019-04-25T01:27:33.335Z,101984.33
2019-04-25T01:30:07.157Z,101980.42
2019-04-25T01:32:39.196Z,101976.42
2019-04-25T01:35:14.004Z,101979.78
2019-04-25T01:37:47.491Z,101974.42
2019-04-25T01:40:37.327Z,101982.92
2019-04-25T01:43:26.922Z,101981.91
2019-04-25T01:45:58.562Z,101976.48
2019-04-25T01:48:30.080Z,101978.86
2019-04-25T01:51:01.602Z,101977.63
2019-04-25T01:53:33.949Z,101978.66
2019-04-25T01:56:07.843Z,101976.66
2019-04-25T01:58:40.983Z,101983.26
2019-04-25T02:01:14.330Z,101987.20
2019-04-25T02:03:46.231Z,101979.98
2019-04-25T02:06:18.548Z,101980.50
2019-04-25T02:08:50.879Z,101972.19
2019-04-25T02:11:34.771Z,101983.89
2019-04-25T02:14:07.149Z,101979.79
2019-04-25T02:16:38.694Z,101978.97
2019-04-25T02:19:31.387Z,101982.66
2019-04-25T02:22:04.034Z,101985.84
2019-04-25T02:24:35.560Z,101985.33
2019-04-25T02:27:07.480Z,101988.02
2019-04-25T02:29:39.194Z,101995.80
2019-04-25T02:32:11.268Z,101995.28
2019-04-25T02:34:45.263Z,101994.27
2019-04-25T02:37:16.013Z,101986.64
2019-04-25T02:39:47.633Z,101995.39
2019-04-25T02:42:19.264Z,101992.71
2019-04-25T02:44:54.731Z,101993.67
2019-04-25T02:47:29.917Z,101998.59
2019-04-25T02:50:07.093Z,101998.95
2019-04-25T02:52:41.004Z,102000.78
2019-04-25T02:55:28.029Z,102002.49
2019-04-25T02:57:45.857Z,101994.26
2019-04-25T03:00:24.859Z,102001.81
2019-04-25T03:02:57.933Z,101999.36
2019-04-25T03:05:30.143Z,102008.97
2019-04-25T03:08:05.384Z,102003.13
2019-04-25T03:10:35.439Z,102006.52
2019-04-25T03:13:11.454Z,102008.17
2019-04-25T03:15:40.561Z,102008.09
2019-04-25T03:18:15.187Z,102006.30
2019-04-25T03:20:51.100Z,102011.18
2019-04-25T03:23:30.585Z,102007.87
2019-04-25T03:26:04.771Z,102007.64
2019-04-25T03:28:36.924Z,102006.00
2019-04-25T03:31:14.042Z,102005.59
2019-04-25T03:33:45.052Z,102007.49
2019-04-25T03:36:17.087Z,102009.05
2019-04-25T03:38:48.248Z,102007.59
2019-04-25T03:41:20.710Z,102011.21
2019-04-25T03:43:52.231Z,102008.59
2019-04-25T03:46:24.048Z,102015.06
2019-04-25T03:48:55.852Z,102013.94
2019-04-25T03:51:27.370Z,102010.46
2019-04-25T03:53:59.128Z,102021.52
2019-04-25T03:56:31.086Z,102013.83
2019-04-25T03:59:05.815Z,102014.69
2019-04-25T04:01:37.330Z,102014.27
2019-04-25T04:04:09.069Z,102015.88
2019-04-25T04:06:46.270Z,102020.59
2019-04-25T04:09:18.529Z,102021.93
2019-04-25T04:11:50.825Z,102019.84
2019-04-25T04:14:24.436Z,102021.56
2019-04-25T04:17:10.914Z,102025.90
2019-04-25T04:19:56.651Z,102023.28
2019-04-25T04:22:39.534Z,102021.91
2019-04-25T04:25:13.884Z,102032.19
2019-04-25T04:27:46.319Z,102034.00
2019-04-25T04:30:18.630Z,102020.02
2019-04-25T04:32:53.585Z,102023.50
2019-04-25T04:35:35.256Z,102023.66
2019-04-25T04:38:08.140Z,102028.38
2019-04-25T04:40:40.590Z,102024.26
2019-04-25T04:43:12.230Z,102029.36
2019-04-25T04:45:45.640Z,102021.53
2019-04-25T04:48:17.497Z,102027.41
2019-04-25T04:50:48.895Z,102031.05
2019-04-25T04:53:20.594Z,102025.51
2019-04-25T04:55:54.371Z,102027.31
2019-04-25T04:58:26.685Z,102032.45
2019-04-25T05:00:58.319Z,102028.05
2019-04-25T05:03:43.995Z,102031.67
2019-04-25T05:06:17.430Z,102030.98
2019-04-25T05:08:53.231Z,102032.36
2019-04-25T05:11:25.530Z,102041.36
2019-04-25T05:13:57.165Z,102037.86
2019-04-25T05:16:30.442Z,102040.91
2019-04-25T05:19:03.723Z,102043.77
2019-04-25T05:21:39.607Z,102039.84
2019-04-25T05:24:16.415Z,102040.45
2019-04-25T05:26:50.651Z,102034.33
2019-04-25T05:29:24.144Z,102041.95
2019-04-25T05:31:59.066Z,102037.62
2019-04-25T05:34:30.828Z,102033.58
2019-04-25T05:37:05.031Z,102035.61
2019-04-25T05:39:39.292Z,102034.39
2019-04-25T05:42:20.329Z,102038.62
2019-04-25T05:44:51.941Z,102033.94
2019-04-25T05:47:26.054Z,102029.20
2019-04-25T05:49:57.592Z,102029.26
2019-04-25T05:52:30.125Z,102032.80
2019-04-25T05:55:01.718Z,102034.14
2019-04-25T05:57:45.631Z,102030.42
2019-04-25T06:00:10.742Z,102030.03
2019-04-25T06:02:42.190Z,102031.72
2019-04-25T06:08:07.204Z,102031.27
2019-04-25T06:10:48.680Z,102032.28
2019-04-25T06:13:30.667Z,102027.64
2019-04-25T06:16:09.331Z,102020.61
2019-04-25T06:18:44.061Z,102020.30
2019-04-25T06:21:18.152Z,102023.53
2019-04-25T06:23:57.711Z,102024.61
2019-04-25T06:26:35.370Z,102023.39
2019-04-25T06:29:03.313Z,102016.45
2019-04-25T06:31:35.652Z,102014.66
2019-04-25T06:34:10.746Z,102018.58
2019-04-25T06:36:42.238Z,102020.28
2019-04-25T06:39:14.251Z,102017.38
2019-04-25T06:41:45.956Z,102018.45
2019-04-25T06:44:34.417Z,102012.16
2019-04-25T06:47:15.199Z,102014.04
2019-04-25T06:49:46.628Z,102014.06
2019-04-25T06:52:18.073Z,102012.05
2019-04-25T06:54:49.617Z,102012.37
2019-04-25T06:57:22.165Z,102014.06
2019-04-25T06:59:53.745Z,102013.73
2019-04-25T07:02:27.051Z,102008.12
2019-04-25T07:04:58.597Z,102010.28
2019-04-25T07:07:34.200Z,102007.19
2019-04-25T07:10:09.181Z,102001.61
2019-04-25T07:12:41.529Z,102005.37
2019-04-25T07:15:14.742Z,102003.73
2019-04-25T07:17:46.700Z,102007.09
2019-04-25T07:20:21.578Z,102008.12
2019-04-25T07:22:53.718Z,102004.59
2019-04-25T07:25:27.742Z,102007.02
2019-04-25T07:28:22.212Z,102002.55
2019-04-25T07:30:57.014Z,102004.31
2019-04-25T07:33:37.341Z,102001.39
2019-04-25T07:36:10.912Z,102004.78
2019-04-25T07:38:47.377Z,102001.50
2019-04-25T07:41:19.522Z,102001.28
2019-04-25T07:43:53.299Z,102001.02
2019-04-25T07:46:29.803Z,102000.54
2019-04-25T07:49:03.483Z,101995.78
2019-04-25T07:51:35.568Z,102005.20
2019-04-25T07:54:07.788Z,101991.88
2019-04-25T07:56:39.441Z,101991.70
2019-04-25T07:59:11.003Z,101993.81
2019-04-25T08:02:07.893Z,101992.91
2019-04-25T08:04:41.702Z,101986.54
2019-04-25T08:07:15.438Z,101990.58
2019-04-25T08:09:47.069Z,101991.83
2019-04-25T08:12:19.728Z,101988.82
2019-04-25T08:15:00.532Z,101985.81
2019-04-25T08:17:50.242Z,101978.71
2019-04-25T08:20:24.214Z,101984.22
2019-04-25T08:22:59.001Z,101982.61
2019-04-25T08:25:33.485Z,101981.72
2019-04-25T08:28:05.038Z,101974.27
2019-04-25T08:30:37.035Z,101976.63
2019-04-25T08:33:11.439Z,101972.95
2019-04-25T08:36:02.969Z,101964.11
2019-04-25T08:38:17.002Z,101968.02
2019-04-25T08:40:48.976Z,101968.02
2019-04-25T08:43:20.621Z,101958.10
2019-04-25T08:45:55.828Z,101956.88
2019-04-25T08:48:30.483Z,101957.42
2019-04-25T08:51:06.006Z,101950.25
2019-04-25T08:53:54.506Z,101956.39
2019-04-25T08:56:28.260Z,101950.80
2019-04-25T08:59:08.225Z,101946.98
2019-04-25T09:01:49.334Z,101945.75
2019-04-25T09:04:42.628Z,101945.54
2019-04-25T09:07:15.568Z,101939.23
2019-04-25T09:09:49.726Z,101931.36
2019-04-25T09:12:21.522Z,101930.84
2019-04-25T09:14:54.192Z,101928.34
2019-04-25T09:17:29.071Z,101924.20
2019-04-25T09:20:01.891Z,101926.33
2019-04-25T09:22:39.939Z,101922.42
2019-04-25T09:25:16.288Z,101915.61
2019-04-25T09:27:51.164Z,101909.37
2019-04-25T09:30:27.356Z,101908.72
2019-04-25T09:33:10.961Z,101909.02
2019-04-25T09:35:45.982Z,101903.55
2019-04-25T09:38:20.541Z,101900.41
2019-04-25T09:40:54.200Z,101901.58
2019-04-25T09:43:26.001Z,101900.89
2019-04-25T09:46:00.278Z,101906.21
2019-04-25T09:48:46.826Z,101899.28
2019-04-25T09:51:23.577Z,101891.67
2019-04-25T09:53:57.224Z,101887.64
2019-04-25T09:56:31.486Z,101888.98
2019-04-25T09:59:07.493Z,101888.83
2019-04-25T10:01:40.186Z,101884.58
2019-04-25T10:04:12.137Z,101884.50
2019-04-25T10:06:46.047Z,101876.88
2019-04-25T10:09:18.077Z,101876.46
2019-04-25T10:11:49.580Z,101876.48
2019-04-25T10:14:37.655Z,101876.47
2019-04-25T10:17:09.527Z,101882.95
2019-04-25T10:19:41.203Z,101865.22
2019-04-25T10:22:13.682Z,101860.10
2019-04-25T10:24:59.925Z,101865.61
2019-04-25T10:27:20.775Z,101678.09
2019-04-25T10:29:56.532Z,101849.45
2019-04-25T10:32:26.323Z,101859.50
2019-04-25T10:34:59.355Z,101852.97
2019-04-25T10:37:30.807Z,101854.15
2019-04-25T10:40:04.328Z,101849.80
2019-04-25T10:42:36.957Z,101850.34
2019-04-25T10:45:22.907Z,101841.89
2019-04-25T10:47:46.801Z,101842.03
2019-04-25T10:53:26.844Z,101844.44
2019-04-25T10:56:00.101Z,101832.63
2019-04-25T10:58:33.472Z,101830.32
2019-04-25T11:01:06.442Z,101837.00
2019-04-25T11:03:40.760Z,101835.24
2019-04-25T11:06:15.043Z,101833.81
2019-04-25T11:08:47.564Z,101831.65
2019-04-25T11:11:21.651Z,101833.70
2019-04-25T11:13:55.939Z,101828.50
2019-04-25T11:16:28.310Z,101824.88
2019-04-25T11:18:59.872Z,101827.89
2019-04-25T11:21:33.214Z,101820.96
2019-04-25T11:24:05.507Z,101818.48
2019-04-25T11:26:38.909Z,101820.05
2019-04-25T11:29:11.504Z,101820.25
2019-04-25T11:31:45.940Z,101809.42
2019-04-25T11:34:20.611Z,101807.78
2019-04-25T11:36:55.680Z,101808.00
2019-04-25T11:39:40.638Z,101780.68
2019-04-25T11:42:13.110Z,101805.59
2019-04-25T11:44:45.450Z,101803.67
2019-04-25T11:47:18.193Z,101797.85
2019-04-25T11:49:54.196Z,101796.73
2019-04-25T11:52:28.145Z,101792.30
2019-04-25T11:54:59.341Z,101789.52
2019-04-25T11:57:32.843Z,101786.07
2019-04-25T12:00:21.599Z,101788.98
2019-04-25T12:02:49.719Z,101777.06
2019-04-25T12:05:23.581Z,101779.27
2019-04-25T12:07:55.473Z,101773.20
2019-04-25T12:10:28.487Z,101767.91
2019-04-25T12:13:01.225Z,101765.40
2019-04-25T12:15:33.824Z,101765.67
2019-04-25T12:18:05.565Z,101765.45
2019-04-25T12:20:37.247Z,101767.23
2019-04-25T12:23:10.565Z,101759.27
2019-04-25T12:25:42.302Z,101764.09
2019-04-25T12:28:16.821Z,101756.40
2019-04-25T12:30:54.950Z,101752.37
2019-04-25T12:33:29.345Z,101761.93
2019-04-25T12:36:06.232Z,101757.28
2019-04-25T12:38:41.435Z,101748.52
2019-04-25T12:41:13.511Z,101759.54
2019-04-25T12:44:08.863Z,101752.39
2019-04-25T12:46:43.611Z,101743.45
2019-04-25T12:49:16.216Z,101731.79
2019-04-25T12:51:50.375Z,101734.49
2019-04-25T12:54:23.881Z,101737.95
2019-04-25T12:56:57.262Z,101741.03
2019-04-25T12:59:33.018Z,101730.98
2019-04-25T13:02:17.169Z,101731.00
2019-04-25T13:04:50.720Z,101726.00
2019-04-25T13:07:30.335Z,101724.67
2019-04-25T13:10:05.827Z,101725.45
2019-04-25T13:12:40.071Z,101732.11
2019-04-25T13:15:15.634Z,101722.99
2019-04-25T13:17:48.586Z,101721.33
2019-04-25T13:20:20.575Z,101723.21
2019-04-25T13:22:53.854Z,101716.84
2019-04-25T13:25:25.477Z,101722.23
2019-04-25T13:28:07.144Z,101704.25
2019-04-25T13:31:07.493Z,101706.60
2019-04-25T13:33:39.814Z,101705.38
2019-04-25T13:36:13.441Z,101695.40
2019-04-25T13:38:45.268Z,101701.13
2019-04-25T13:41:18.520Z,101694.59
2019-04-25T13:43:50.327Z,101700.17
2019-04-25T13:46:26.113Z,101701.59
2019-04-25T13:48:59.331Z,101698.36
2019-04-25T13:51:30.776Z,101697.41
2019-04-25T13:54:01.964Z,101695.48
2019-04-25T13:56:40.403Z,101692.52
2019-04-25T13:59:10.599Z,101689.73
2019-04-25T14:01:51.135Z,101680.96
2019-04-25T14:04:26.989Z,101680.81
2019-04-25T14:06:59.619Z,101675.41
2019-04-25T14:09:36.749Z,101670.31
2019-04-25T14:12:27.599Z,101672.84
2019-04-25T14:14:58.836Z,101669.88
2019-04-25T14:17:41.346Z,101670.95
2019-04-25T14:20:27.956Z,101659.94
2019-04-25T14:23:00.008Z,101659.94
2019-04-25T14:25:33.193Z,101659.14
2019-04-25T14:28:06.920Z,101663.51
2019-04-25T14:30:38.984Z,101662.98
2019-04-25T14:33:13.444Z,101664.52
2019-04-25T14:35:47.603Z,101653.91
2019-04-25T14:38:26.593Z,101650.79
2019-04-25T14:41:00.420Z,101653.17
2019-04-25T14:43:32.030Z,101651.59
2019-04-25T14:46:04.153Z,101648.78
2019-04-25T14:48:37.122Z,101642.69
2019-04-25T14:51:12.059Z,101640.14
2019-04-25T14:53:43.793Z,101637.45
2019-04-25T14:56:17.133Z,101633.23
2019-04-25T14:58:49.125Z,101601.48
2019-04-25T15:01:22.710Z,101634.16
2019-04-25T15:03:55.939Z,101625.43
2019-04-25T15:06:27.756Z,101626.30
2019-04-25T15:09:00.068Z,101626.44
2019-04-25T15:11:34.209Z,101627.62
2019-04-25T15:14:07.066Z,101624.66
2019-04-25T15:16:41.621Z,101622.05
2019-04-25T15:19:15.204Z,101620.36
2019-04-25T15:21:46.831Z,101630.28
2019-04-25T15:24:18.573Z,101617.11
2019-04-25T15:26:51.317Z,101612.59
2019-04-25T15:29:24.358Z,101611.56
2019-04-25T15:31:56.941Z,101612.53
2019-04-25T15:34:36.134Z,101610.88
2019-04-25T15:37:13.067Z,101612.16
2019-04-25T15:39:49.035Z,101606.37
2019-04-25T15:42:31.953Z,101607.64
2019-04-25T15:45:13.348Z,101599.35
2019-04-25T15:47:45.666Z,101604.17
2019-04-25T15:50:17.630Z,101604.88
2019-04-25T15:52:53.790Z,101603.91
2019-04-25T15:55:26.221Z,101605.91
2019-04-25T15:58:00.530Z,101600.69
2019-04-25T16:00:35.754Z,101598.23
2019-04-25T16:03:08.496Z,101600.94
2019-04-25T16:05:40.315Z,101601.12
2019-04-25T16:08:13.939Z,101602.75
2019-04-25T16:10:46.087Z,101599.73
2019-04-25T16:13:20.825Z,101597.36
2019-04-25T16:15:53.149Z,101591.88
2019-04-25T16:18:24.702Z,101597.64
2019-04-25T16:20:56.305Z,101599.23
2019-04-25T16:23:30.194Z,101599.85
2019-04-25T16:26:03.699Z,101597.20
2019-04-25T16:28:36.055Z,101599.29
2019-04-25T16:31:09.480Z,101598.60
2019-04-25T16:33:42.139Z,101599.33
2019-04-25T16:36:15.425Z,101597.63
2019-04-25T16:38:47.212Z,101594.91
2019-04-25T16:41:22.482Z,101602.36
2019-04-25T16:43:55.724Z,101600.41
2019-04-25T16:46:36.212Z,101600.72
2019-04-25T16:49:08.657Z,101599.87
2019-04-25T16:51:46.386Z,101601.37
2019-04-25T16:54:18.082Z,101605.69
2019-04-25T16:56:50.694Z,101603.02
2019-04-25T16:59:22.578Z,101608.88
2019-04-25T17:01:56.210Z,101608.39
2019-04-25T17:04:29.705Z,101604.73
2019-04-25T17:07:02.472Z,101609.70
2019-04-25T17:09:35.976Z,101612.55
2019-04-25T17:12:14.764Z,101615.35
2019-04-25T17:14:53.824Z,101616.49
2019-04-25T17:17:45.480Z,101620.55
2019-04-25T17:20:18.739Z,101619.28
2019-04-25T17:22:50.633Z,101623.27
2019-04-25T17:25:25.467Z,101621.06
2019-04-25T17:27:57.010Z,101620.75
2019-04-25T17:30:32.580Z,101625.60
2019-04-25T17:33:11.970Z,101626.70
2019-04-25T17:35:59.548Z,101633.42
2019-04-25T17:38:53.257Z,101631.66
2019-04-25T17:41:25.034Z,101639.52
2019-04-25T17:43:56.912Z,101637.39
2019-04-25T17:46:29.273Z,101639.64
2019-04-25T17:49:03.141Z,101636.41
2019-04-25T17:51:35.117Z,101640.70
2019-04-25T17:54:07.043Z,101645.16
2019-04-25T17:56:40.952Z,101643.18
2019-04-25T17:59:12.477Z,101642.52
2019-04-25T18:01:44.388Z,101648.11
2019-04-25T18:04:19.297Z,101649.48
2019-04-25T18:06:51.067Z,101649.48
2019-04-25T18:09:23.920Z,101570.31
2019-04-25T18:11:57.071Z,101648.27
2019-04-25T18:14:35.175Z,101648.77
2019-04-25T18:17:08.617Z,101651.31
2019-04-25T18:19:51.166Z,101637.80
2019-04-25T18:22:24.448Z,101646.26
2019-04-25T18:25:13.168Z,101646.58
2019-04-25T18:27:55.620Z,101643.37
2019-04-25T18:30:27.446Z,101652.67
2019-04-25T18:33:15.801Z,101649.11
2019-04-25T18:35:49.315Z,101650.66
2019-04-25T18:38:29.045Z,101649.98
2019-04-25T18:41:06.834Z,101653.72
2019-04-25T18:43:49.366Z,101646.92
2019-04-25T18:46:22.679Z,101645.57
2019-04-25T18:48:55.241Z,101651.15
2019-04-25T18:51:29.445Z,101651.83
2019-04-25T18:54:02.538Z,101645.77
2019-04-25T18:56:43.198Z,101644.56
2019-04-25T18:59:19.285Z,101649.14
2019-04-25T19:01:56.496Z,101641.19
2019-04-25T19:04:39.565Z,101634.95
2019-04-25T19:07:22.163Z,101640.86
2019-04-25T19:09:45.592Z,101639.50
2019-04-25T19:12:17.264Z,101642.03
2019-04-25T19:14:48.913Z,101640.70
2019-04-25T19:17:20.728Z,101635.09
2019-04-25T19:19:52.661Z,101633.41
2019-04-25T19:22:26.204Z,101635.11
2019-04-25T19:24:57.751Z,101636.78
2019-04-25T19:27:29.991Z,101632.56
2019-04-25T19:30:02.506Z,101636.08
2019-04-25T19:32:35.598Z,101638.95
2019-04-25T19:35:07.753Z,101638.41
2019-04-25T19:37:39.532Z,101632.70
2019-04-25T19:40:30.415Z,101635.92
2019-04-25T19:43:10.828Z,101635.38
2019-04-25T19:45:43.136Z,101634.74
2019-04-25T19:48:16.370Z,101631.67
2019-04-25T19:50:48.084Z,101627.95
2019-04-25T19:53:32.732Z,101627.89
2019-04-25T19:56:06.488Z,101621.14
2019-04-25T19:58:47.425Z,101623.36
2019-04-25T20:01:21.069Z,101620.80
2019-04-25T20:04:12.886Z,101624.45
2019-04-25T20:07:02.745Z,101624.75
2019-04-25T20:09:42.345Z,101616.81
2019-04-25T20:12:18.795Z,101622.90
2019-04-25T20:14:54.094Z,101624.05
2019-04-25T20:17:25.933Z,101620.17
2019-04-25T20:19:57.843Z,101628.41
2019-04-25T20:22:35.309Z,101621.36
2019-04-25T20:25:10.496Z,101620.20
2019-04-25T20:27:42.207Z,101628.12
2019-04-25T20:30:15.572Z,101627.17
2019-04-25T20:32:47.858Z,101629.53
2019-04-25T20:35:19.465Z,101630.84
2019-04-25T20:37:51.233Z,101637.91
2019-04-25T20:40:23.870Z,101631.14
2019-04-25T20:42:56.554Z,101628.20
2019-04-25T20:45:31.742Z,101634.00
2019-04-25T20:48:03.303Z,101632.61
2019-04-25T20:50:35.225Z,101624.98
2019-04-25T20:53:07.374Z,101625.48
2019-04-25T20:55:39.433Z,101627.47
2019-04-25T20:58:11.448Z,101627.01
2019-04-25T21:00:45.416Z,101624.17
2019-04-25T21:03:16.882Z,101627.91
2019-04-25T21:05:50.998Z,101630.05
2019-04-25T21:08:24.605Z,101627.39
2019-04-25T21:10:57.744Z,101625.98
2019-04-25T21:13:31.167Z,101631.72
2019-04-25T21:16:04.712Z,101631.37
2019-04-25T21:18:38.041Z,101637.44
2019-04-25T21:21:09.662Z,101632.75
2019-04-25T21:23:42.009Z,101626.02
2019-04-25T21:26:13.927Z,101627.33
2019-04-25T21:28:46.480Z,101629.53
2019-04-25T21:31:18.203Z,101634.34
2019-04-25T21:33:50.758Z,101635.86
2019-04-25T21:36:23.698Z,101629.59
2019-04-25T21:38:55.716Z,101628.73
2019-04-25T21:41:38.396Z,101629.53
2019-04-25T21:44:10.452Z,101633.74
2019-04-25T21:46:45.900Z,101630.41
2019-04-25T21:49:17.972Z,101629.73
2019-04-25T21:51:51.095Z,101637.00
2019-04-25T21:54:22.836Z,101634.13
2019-04-25T21:56:57.430Z,101635.80
2019-04-25T21:59:29.302Z,101628.20
2019-04-25T22:02:00.924Z,101641.83
2019-04-25T22:04:40.352Z,101634.83
2019-04-25T22:07:06.212Z,101640.37
2019-04-25T22:09:38.111Z,101643.24
2019-04-25T22:12:12.152Z,101640.20
2019-04-25T22:14:43.982Z,101638.17
2019-04-25T22:17:15.708Z,101630.44
2019-04-25T22:19:48.729Z,101636.88
2019-04-25T22:22:22.201Z,101638.93
2019-04-25T22:24:54.186Z,101629.67
2019-04-25T22:27:27.529Z,101630.66
2019-04-25T22:29:59.942Z,101633.22
2019-04-25T22:32:33.595Z,101631.84
2019-04-25T22:35:08.231Z,101628.12
2019-04-25T22:37:39.815Z,101630.81
2019-04-25T22:40:11.794Z,101623.45
2019-04-25T22:42:43.860Z,101627.86
2019-04-25T22:45:15.617Z,101622.81
2019-04-25T22:47:48.501Z,101625.86
2019-04-25T22:50:20.592Z,101632.00
2019-04-25T22:52:54.465Z,101624.87
2019-04-25T22:55:34.161Z,101631.62
2019-04-25T22:58:06.584Z,101634.65
2019-04-25T23:00:39.143Z,101627.89
2019-04-25T23:03:14.422Z,101631.10
2019-04-25T23:05:53.630Z,101629.23
2019-04-25T23:08:26.535Z,101633.58
2019-04-25T23:10:59.124Z,101629.86
2019-04-25T23:13:31.145Z,101628.47
2019-04-25T23:16:05.050Z,101626.95
2019-04-25T23:18:36.637Z,101636.70
2019-04-25T23:21:08.552Z,101631.46
2019-04-25T23:23:40.267Z,101626.89
2019-04-25T23:26:19.155Z,101627.39
2019-04-25T23:28:52.784Z,101628.67
2019-04-25T23:31:25.849Z,101621.94
2019-04-25T23:33:57.774Z,101616.72
2019-04-25T23:36:29.299Z,101622.64
2019-04-25T23:39:00.851Z,101619.95
2019-04-25T23:41:35.212Z,101623.95
2019-04-25T23:44:07.985Z,101622.23
2019-04-25T23:46:39.813Z,101618.19
2019-04-25T23:49:12.734Z,101617.19
2019-04-25T23:51:44.845Z,101614.81
2019-04-25T23:54:17.199Z,101614.11
2019-04-25T23:56:48.552Z,101618.97
2019-04-25T23:59:20.251Z,101614.03
